sensor_id;sensor_type;location;lat;lon;timestamp;P1;durP1;ratioP1;P2;durP2;ratioP2
40745;SDS011;26454;51.164;4.488;2022-08-01T00:00:48;15.30;;;8.13;;
40745;SDS011;26454;51.164;4.488;2022-08-01T00:03:14;12.73;;;7.50;;
40745;SDS011;26454;51.164;4.488;2022-08-01T00:05:40;10.80;;;7.18;;
40745;SDS011;26454;51.164;4.488;2022-08-01T00:08:08;10.93;;;8.13;;
40745;SDS011;26454;51.164;4.488;2022-08-01T00:10:34;13.13;;;8.23;;
40745;SDS011;26454;51.164;4.488;2022-08-01T00:13:00;13.70;;;7.78;;
40745;SDS011;26454;51.164;4.488;2022-08-01T00:15:26;8.40;;;7.05;;
40745;SDS011;26454;51.164;4.488;2022-08-01T00:17:52;9.98;;;6.78;;
40745;SDS011;26454;51.164;4.488;2022-08-01T00:20:18;7.65;;;6.55;;
40745;SDS011;26454;51.164;4.488;2022-08-01T00:22:44;9.40;;;6.90;;
40745;SDS011;26454;51.164;4.488;2022-08-01T00:25:10;13.70;;;8.00;;
40745;SDS011;26454;51.164;4.488;2022-08-01T00:27:36;14.05;;;8.48;;
40745;SDS011;26454;51.164;4.488;2022-08-01T00:30:03;11.30;;;7.68;;
40745;SDS011;26454;51.164;4.488;2022-08-01T00:32:30;10.35;;;7.93;;
40745;SDS011;26454;51.164;4.488;2022-08-01T00:34:57;17.25;;;9.07;;
40745;SDS011;26454;51.164;4.488;2022-08-01T00:37:23;14.98;;;10.20;;
40745;SDS011;26454;51.164;4.488;2022-08-01T00:39:49;13.95;;;10.75;;
40745;SDS011;26454;51.164;4.488;2022-08-01T00:42:16;17.23;;;12.60;;
40745;SDS011;26454;51.164;4.488;2022-08-01T00:44:42;14.63;;;11.18;;
40745;SDS011;26454;51.164;4.488;2022-08-01T00:47:08;18.45;;;11.95;;
40745;SDS011;26454;51.164;4.488;2022-08-01T00:49:34;19.35;;;10.98;;
40745;SDS011;26454;51.164;4.488;2022-08-01T00:52:02;15.73;;;11.38;;
40745;SDS011;26454;51.164;4.488;2022-08-01T00:54:32;13.93;;;9.75;;
40745;SDS011;26454;51.164;4.488;2022-08-01T00:57:01;10.23;;;9.10;;
40745;SDS011;26454;51.164;4.488;2022-08-01T00:59:28;17.15;;;9.50;;
40745;SDS011;26454;51.164;4.488;2022-08-01T01:01:58;12.43;;;9.05;;
40745;SDS011;26454;51.164;4.488;2022-08-01T01:04:29;19.02;;;10.45;;
40745;SDS011;26454;51.164;4.488;2022-08-01T01:06:57;12.00;;;8.93;;
40745;SDS011;26454;51.164;4.488;2022-08-01T01:09:44;12.82;;;9.63;;
40745;SDS011;26454;51.164;4.488;2022-08-01T01:17:21;15.70;;;11.82;;
40745;SDS011;26454;51.164;4.488;2022-08-01T01:19:51;14.63;;;12.95;;
40745;SDS011;26454;51.164;4.488;2022-08-01T01:30:11;20.90;;;18.73;;
40745;SDS011;26454;51.164;4.488;2022-08-01T01:32:38;23.42;;;19.98;;
40745;SDS011;26454;51.164;4.488;2022-08-01T01:35:06;31.85;;;22.90;;
40745;SDS011;26454;51.164;4.488;2022-08-01T01:37:33;34.95;;;24.42;;
40745;SDS011;26454;51.164;4.488;2022-08-01T01:40:01;36.53;;;28.35;;
40745;SDS011;26454;51.164;4.488;2022-08-01T01:42:28;32.45;;;28.40;;
40745;SDS011;26454;51.164;4.488;2022-08-01T01:44:55;36.13;;;30.00;;
40745;SDS011;26454;51.164;4.488;2022-08-01T01:47:22;31.95;;;28.77;;
40745;SDS011;26454;51.164;4.488;2022-08-01T01:49:48;43.72;;;33.58;;
40745;SDS011;26454;51.164;4.488;2022-08-01T01:52:16;40.55;;;36.10;;
40745;SDS011;26454;51.164;4.488;2022-08-01T01:54:45;43.45;;;35.40;;
40745;SDS011;26454;51.164;4.488;2022-08-01T01:57:13;48.20;;;33.75;;
40745;SDS011;26454;51.164;4.488;2022-08-01T01:59:40;47.88;;;37.47;;
40745;SDS011;26454;51.164;4.488;2022-08-01T02:02:07;41.38;;;33.97;;
40745;SDS011;26454;51.164;4.488;2022-08-01T02:04:35;38.22;;;31.58;;
40745;SDS011;26454;51.164;4.488;2022-08-01T02:07:02;38.85;;;33.05;;
40745;SDS011;26454;51.164;4.488;2022-08-01T02:09:29;33.20;;;29.80;;
40745;SDS011;26454;51.164;4.488;2022-08-01T02:11:56;33.30;;;29.92;;
40745;SDS011;26454;51.164;4.488;2022-08-01T02:14:23;37.90;;;32.10;;
40745;SDS011;26454;51.164;4.488;2022-08-01T02:16:51;35.60;;;31.63;;
40745;SDS011;26454;51.164;4.488;2022-08-01T02:19:18;35.78;;;32.03;;
40745;SDS011;26454;51.164;4.488;2022-08-01T02:21:50;40.53;;;35.80;;
40745;SDS011;26454;51.164;4.488;2022-08-01T02:24:23;38.40;;;34.25;;
40745;SDS011;26454;51.164;4.488;2022-08-01T02:26:52;38.83;;;31.65;;
40745;SDS011;26454;51.164;4.488;2022-08-01T02:29:22;37.38;;;30.55;;
40745;SDS011;26454;51.164;4.488;2022-08-01T02:31:50;37.75;;;32.08;;
40745;SDS011;26454;51.164;4.488;2022-08-01T02:34:19;31.63;;;27.48;;
40745;SDS011;26454;51.164;4.488;2022-08-01T02:36:47;38.00;;;28.58;;
40745;SDS011;26454;51.164;4.488;2022-08-01T02:39:14;30.33;;;25.92;;
40745;SDS011;26454;51.164;4.488;2022-08-01T02:41:43;41.63;;;29.25;;
40745;SDS011;26454;51.164;4.488;2022-08-01T02:44:11;31.73;;;24.48;;
40745;SDS011;26454;51.164;4.488;2022-08-01T02:46:40;26.80;;;22.37;;
40745;SDS011;26454;51.164;4.488;2022-08-01T02:51:36;26.42;;;19.63;;
40745;SDS011;26454;51.164;4.488;2022-08-01T02:54:02;24.38;;;18.83;;
40745;SDS011;26454;51.164;4.488;2022-08-01T02:56:29;25.15;;;18.27;;
40745;SDS011;26454;51.164;4.488;2022-08-01T02:59:04;29.88;;;19.88;;
40745;SDS011;26454;51.164;4.488;2022-08-01T03:01:31;20.02;;;16.60;;
40745;SDS011;26454;51.164;4.488;2022-08-01T03:03:58;27.17;;;18.20;;
40745;SDS011;26454;51.164;4.488;2022-08-01T03:06:24;32.33;;;20.98;;
40745;SDS011;26454;51.164;4.488;2022-08-01T03:08:52;28.77;;;18.17;;
40745;SDS011;26454;51.164;4.488;2022-08-01T03:11:18;27.70;;;19.27;;
40745;SDS011;26454;51.164;4.488;2022-08-01T03:13:45;23.95;;;16.85;;
40745;SDS011;26454;51.164;4.488;2022-08-01T03:16:13;18.80;;;15.77;;
40745;SDS011;26454;51.164;4.488;2022-08-01T03:18:41;20.30;;;15.73;;
40745;SDS011;26454;51.164;4.488;2022-08-01T03:21:09;19.70;;;13.82;;
40745;SDS011;26454;51.164;4.488;2022-08-01T03:23:37;25.83;;;15.20;;
40745;SDS011;26454;51.164;4.488;2022-08-01T03:26:04;20.55;;;14.40;;
40745;SDS011;26454;51.164;4.488;2022-08-01T03:28:31;19.13;;;13.07;;
40745;SDS011;26454;51.164;4.488;2022-08-01T03:30:58;18.17;;;14.25;;
40745;SDS011;26454;51.164;4.488;2022-08-01T03:33:24;18.85;;;15.27;;
40745;SDS011;26454;51.164;4.488;2022-08-01T03:35:54;17.40;;;14.05;;
40745;SDS011;26454;51.164;4.488;2022-08-01T03:38:22;19.15;;;13.57;;
40745;SDS011;26454;51.164;4.488;2022-08-01T03:40:51;20.42;;;14.35;;
40745;SDS011;26454;51.164;4.488;2022-08-01T03:43:22;17.92;;;14.80;;
40745;SDS011;26454;51.164;4.488;2022-08-01T03:45:55;18.00;;;16.27;;
40745;SDS011;26454;51.164;4.488;2022-08-01T03:48:22;17.27;;;15.48;;
40745;SDS011;26454;51.164;4.488;2022-08-01T03:50:52;19.77;;;14.68;;
40745;SDS011;26454;51.164;4.488;2022-08-01T03:53:22;19.48;;;17.48;;
40745;SDS011;26454;51.164;4.488;2022-08-01T03:55:52;18.08;;;16.15;;
40745;SDS011;26454;51.164;4.488;2022-08-01T03:58:19;17.35;;;15.63;;
40745;SDS011;26454;51.164;4.488;2022-08-01T04:00:46;17.45;;;15.85;;
40745;SDS011;26454;51.164;4.488;2022-08-01T04:03:12;16.55;;;14.88;;
40745;SDS011;26454;51.164;4.488;2022-08-01T04:05:41;18.10;;;16.33;;
40745;SDS011;26454;51.164;4.488;2022-08-01T04:08:07;16.83;;;15.27;;
40745;SDS011;26454;51.164;4.488;2022-08-01T04:10:33;17.92;;;16.23;;
40745;SDS011;26454;51.164;4.488;2022-08-01T04:13:00;18.75;;;17.08;;
40745;SDS011;26454;51.164;4.488;2022-08-01T04:15:26;19.95;;;18.30;;
40745;SDS011;26454;51.164;4.488;2022-08-01T04:17:53;20.33;;;18.58;;
40745;SDS011;26454;51.164;4.488;2022-08-01T04:20:20;20.88;;;19.13;;
40745;SDS011;26454;51.164;4.488;2022-08-01T04:22:47;18.73;;;17.23;;
40745;SDS011;26454;51.164;4.488;2022-08-01T04:25:15;20.77;;;19.20;;
40745;SDS011;26454;51.164;4.488;2022-08-01T04:27:44;21.77;;;20.25;;
40745;SDS011;26454;51.164;4.488;2022-08-01T04:30:14;20.70;;;19.17;;
40745;SDS011;26454;51.164;4.488;2022-08-01T04:32:41;22.52;;;20.95;;
40745;SDS011;26454;51.164;4.488;2022-08-01T04:35:09;20.75;;;19.42;;
40745;SDS011;26454;51.164;4.488;2022-08-01T04:37:38;19.73;;;18.40;;
40745;SDS011;26454;51.164;4.488;2022-08-01T04:40:05;22.17;;;20.70;;
40745;SDS011;26454;51.164;4.488;2022-08-01T04:42:32;22.65;;;20.88;;
40745;SDS011;26454;51.164;4.488;2022-08-01T04:45:00;21.17;;;19.90;;
40745;SDS011;26454;51.164;4.488;2022-08-01T04:47:26;21.67;;;20.27;;
40745;SDS011;26454;51.164;4.488;2022-08-01T04:49:57;21.58;;;19.90;;
40745;SDS011;26454;51.164;4.488;2022-08-01T04:52:23;18.92;;;17.30;;
40745;SDS011;26454;51.164;4.488;2022-08-01T04:54:58;14.45;;;13.55;;
40745;SDS011;26454;51.164;4.488;2022-08-01T04:57:24;13.57;;;12.68;;
40745;SDS011;26454;51.164;4.488;2022-08-01T04:59:50;13.45;;;12.45;;
40745;SDS011;26454;51.164;4.488;2022-08-01T05:02:22;12.00;;;11.10;;
40745;SDS011;26454;51.164;4.488;2022-08-01T05:04:49;12.18;;;11.38;;
40745;SDS011;26454;51.164;4.488;2022-08-01T05:07:15;9.95;;;9.13;;
40745;SDS011;26454;51.164;4.488;2022-08-01T05:09:41;14.52;;;13.48;;
40745;SDS011;26454;51.164;4.488;2022-08-01T05:12:13;11.98;;;10.85;;
40745;SDS011;26454;51.164;4.488;2022-08-01T05:17:07;9.20;;;8.52;;
40745;SDS011;26454;51.164;4.488;2022-08-01T05:19:33;12.93;;;11.82;;
40745;SDS011;26454;51.164;4.488;2022-08-01T05:22:04;12.07;;;11.18;;
40745;SDS011;26454;51.164;4.488;2022-08-01T05:24:33;11.20;;;10.10;;
40745;SDS011;26454;51.164;4.488;2022-08-01T05:26:59;10.60;;;9.90;;
40745;SDS011;26454;51.164;4.488;2022-08-01T05:29:25;12.05;;;11.25;;
40745;SDS011;26454;51.164;4.488;2022-08-01T05:31:51;11.15;;;10.35;;
40745;SDS011;26454;51.164;4.488;2022-08-01T05:34:17;13.45;;;12.60;;
40745;SDS011;26454;51.164;4.488;2022-08-01T05:36:44;10.20;;;9.30;;
40745;SDS011;26454;51.164;4.488;2022-08-01T05:39:10;10.70;;;10.05;;
40745;SDS011;26454;51.164;4.488;2022-08-01T05:41:36;4.93;;;4.63;;
40745;SDS011;26454;51.164;4.488;2022-08-01T05:44:04;3.53;;;2.90;;
40745;SDS011;26454;51.164;4.488;2022-08-01T05:46:31;5.93;;;5.32;;
40745;SDS011;26454;51.164;4.488;2022-08-01T05:48:58;4.70;;;3.80;;
40745;SDS011;26454;51.164;4.488;2022-08-01T05:51:24;5.35;;;4.88;;
40745;SDS011;26454;51.164;4.488;2022-08-01T05:53:51;3.35;;;3.05;;
40745;SDS011;26454;51.164;4.488;2022-08-01T05:56:21;5.38;;;3.42;;
40745;SDS011;26454;51.164;4.488;2022-08-01T05:58:47;4.60;;;4.20;;
40745;SDS011;26454;51.164;4.488;2022-08-01T06:01:14;3.42;;;2.83;;
40745;SDS011;26454;51.164;4.488;2022-08-01T06:03:41;5.43;;;4.30;;
40745;SDS011;26454;51.164;4.488;2022-08-01T06:06:07;5.25;;;4.93;;
40745;SDS011;26454;51.164;4.488;2022-08-01T06:08:33;5.05;;;4.65;;
40745;SDS011;26454;51.164;4.488;2022-08-01T06:10:59;3.97;;;3.08;;
40745;SDS011;26454;51.164;4.488;2022-08-01T06:13:25;3.95;;;3.17;;
40745;SDS011;26454;51.164;4.488;2022-08-01T06:15:51;4.53;;;3.28;;
40745;SDS011;26454;51.164;4.488;2022-08-01T06:18:17;3.42;;;2.63;;
40745;SDS011;26454;51.164;4.488;2022-08-01T06:20:43;4.38;;;3.80;;
40745;SDS011;26454;51.164;4.488;2022-08-01T06:23:10;4.30;;;3.08;;
40745;SDS011;26454;51.164;4.488;2022-08-01T06:25:36;3.58;;;2.80;;
40745;SDS011;26454;51.164;4.488;2022-08-01T06:28:02;3.97;;;3.35;;
40745;SDS011;26454;51.164;4.488;2022-08-01T06:30:29;4.80;;;3.30;;
40745;SDS011;26454;51.164;4.488;2022-08-01T06:32:55;3.47;;;3.17;;
40745;SDS011;26454;51.164;4.488;2022-08-01T06:35:23;3.70;;;3.40;;
40745;SDS011;26454;51.164;4.488;2022-08-01T06:37:49;2.15;;;2.03;;
40745;SDS011;26454;51.164;4.488;2022-08-01T06:40:15;2.88;;;2.60;;
40745;SDS011;26454;51.164;4.488;2022-08-01T06:42:43;2.95;;;2.78;;
40745;SDS011;26454;51.164;4.488;2022-08-01T06:45:11;2.58;;;1.90;;
40745;SDS011;26454;51.164;4.488;2022-08-01T06:47:39;2.50;;;2.30;;
40745;SDS011;26454;51.164;4.488;2022-08-01T06:50:07;4.03;;;2.85;;
40745;SDS011;26454;51.164;4.488;2022-08-01T06:52:33;2.30;;;2.10;;
40745;SDS011;26454;51.164;4.488;2022-08-01T06:54:59;4.30;;;4.10;;
40745;SDS011;26454;51.164;4.488;2022-08-01T06:57:26;4.00;;;3.35;;
40745;SDS011;26454;51.164;4.488;2022-08-01T06:59:52;3.42;;;2.45;;
40745;SDS011;26454;51.164;4.488;2022-08-01T07:02:19;4.28;;;4.07;;
40745;SDS011;26454;51.164;4.488;2022-08-01T07:04:45;5.20;;;4.53;;
40745;SDS011;26454;51.164;4.488;2022-08-01T07:07:11;9.13;;;8.63;;
40745;SDS011;26454;51.164;4.488;2022-08-01T07:09:37;3.47;;;3.28;;
40745;SDS011;26454;51.164;4.488;2022-08-01T07:12:06;4.15;;;3.80;;
40745;SDS011;26454;51.164;4.488;2022-08-01T07:14:32;3.83;;;3.33;;
40745;SDS011;26454;51.164;4.488;2022-08-01T07:16:58;9.32;;;8.52;;
40745;SDS011;26454;51.164;4.488;2022-08-01T07:19:25;6.05;;;5.75;;
40745;SDS011;26454;51.164;4.488;2022-08-01T07:21:52;4.55;;;4.18;;
40745;SDS011;26454;51.164;4.488;2022-08-01T07:24:18;3.25;;;2.95;;
40745;SDS011;26454;51.164;4.488;2022-08-01T07:26:45;1.92;;;1.83;;
40745;SDS011;26454;51.164;4.488;2022-08-01T07:29:11;2.65;;;2.25;;
40745;SDS011;26454;51.164;4.488;2022-08-01T07:31:37;3.00;;;2.20;;
40745;SDS011;26454;51.164;4.488;2022-08-01T07:34:03;2.97;;;1.88;;
40745;SDS011;26454;51.164;4.488;2022-08-01T07:36:29;2.72;;;2.55;;
40745;SDS011;26454;51.164;4.488;2022-08-01T07:38:55;3.15;;;3.05;;
40745;SDS011;26454;51.164;4.488;2022-08-01T07:41:21;3.78;;;3.58;;
40745;SDS011;26454;51.164;4.488;2022-08-01T07:43:48;2.40;;;2.08;;
40745;SDS011;26454;51.164;4.488;2022-08-01T07:46:15;3.20;;;2.30;;
40745;SDS011;26454;51.164;4.488;2022-08-01T07:48:42;4.18;;;3.30;;
40745;SDS011;26454;51.164;4.488;2022-08-01T07:51:08;2.65;;;2.45;;
40745;SDS011;26454;51.164;4.488;2022-08-01T07:53:35;3.00;;;2.80;;
40745;SDS011;26454;51.164;4.488;2022-08-01T07:56:02;3.42;;;2.60;;
40745;SDS011;26454;51.164;4.488;2022-08-01T07:58:30;3.05;;;2.10;;
40745;SDS011;26454;51.164;4.488;2022-08-01T08:00:56;3.05;;;2.85;;
40745;SDS011;26454;51.164;4.488;2022-08-01T08:03:23;4.15;;;3.95;;
40745;SDS011;26454;51.164;4.488;2022-08-01T08:05:49;3.40;;;3.10;;
40745;SDS011;26454;51.164;4.488;2022-08-01T08:08:16;3.72;;;3.42;;
40745;SDS011;26454;51.164;4.488;2022-08-01T08:10:43;4.32;;;3.97;;
40745;SDS011;26454;51.164;4.488;2022-08-01T08:13:09;3.65;;;3.35;;
40745;SDS011;26454;51.164;4.488;2022-08-01T08:15:35;3.45;;;3.15;;
40745;SDS011;26454;51.164;4.488;2022-08-01T08:18:03;6.20;;;4.55;;
40745;SDS011;26454;51.164;4.488;2022-08-01T08:20:29;2.53;;;2.33;;
40745;SDS011;26454;51.164;4.488;2022-08-01T08:22:55;3.35;;;2.50;;
40745;SDS011;26454;51.164;4.488;2022-08-01T08:25:23;2.70;;;2.60;;
40745;SDS011;26454;51.164;4.488;2022-08-01T08:27:50;4.43;;;4.22;;
40745;SDS011;26454;51.164;4.488;2022-08-01T08:30:16;5.03;;;4.72;;
40745;SDS011;26454;51.164;4.488;2022-08-01T08:32:43;2.88;;;2.47;;
40745;SDS011;26454;51.164;4.488;2022-08-01T08:35:12;3.47;;;2.97;;
40745;SDS011;26454;51.164;4.488;2022-08-01T08:37:38;5.75;;;2.58;;
40745;SDS011;26454;51.164;4.488;2022-08-01T08:40:05;3.85;;;3.55;;
40745;SDS011;26454;51.164;4.488;2022-08-01T08:42:31;3.30;;;2.88;;
40745;SDS011;26454;51.164;4.488;2022-08-01T08:44:57;4.22;;;3.97;;
40745;SDS011;26454;51.164;4.488;2022-08-01T08:47:24;3.95;;;3.65;;
40745;SDS011;26454;51.164;4.488;2022-08-01T08:49:52;4.07;;;3.58;;
40745;SDS011;26454;51.164;4.488;2022-08-01T08:52:19;6.10;;;3.63;;
40745;SDS011;26454;51.164;4.488;2022-08-01T08:54:46;3.38;;;3.15;;
40745;SDS011;26454;51.164;4.488;2022-08-01T08:57:13;3.95;;;3.53;;
40745;SDS011;26454;51.164;4.488;2022-08-01T08:59:39;4.35;;;3.33;;
40745;SDS011;26454;51.164;4.488;2022-08-01T09:02:06;5.35;;;3.25;;
40745;SDS011;26454;51.164;4.488;2022-08-01T09:04:37;3.75;;;3.17;;
40745;SDS011;26454;51.164;4.488;2022-08-01T09:07:05;4.15;;;3.03;;
40745;SDS011;26454;51.164;4.488;2022-08-01T09:09:31;5.28;;;2.83;;
40745;SDS011;26454;51.164;4.488;2022-08-01T09:11:58;5.90;;;4.68;;
40745;SDS011;26454;51.164;4.488;2022-08-01T09:14:24;6.80;;;3.85;;
40745;SDS011;26454;51.164;4.488;2022-08-01T09:16:59;7.13;;;4.68;;
40745;SDS011;26454;51.164;4.488;2022-08-01T09:19:25;2.83;;;2.45;;
40745;SDS011;26454;51.164;4.488;2022-08-01T09:22:00;4.45;;;2.80;;
40745;SDS011;26454;51.164;4.488;2022-08-01T09:24:30;5.55;;;3.95;;
40745;SDS011;26454;51.164;4.488;2022-08-01T09:26:58;6.43;;;3.38;;
40745;SDS011;26454;51.164;4.488;2022-08-01T09:29:26;6.38;;;3.25;;
40745;SDS011;26454;51.164;4.488;2022-08-01T09:31:55;4.05;;;3.17;;
40745;SDS011;26454;51.164;4.488;2022-08-01T09:34:25;5.10;;;3.03;;
40745;SDS011;26454;51.164;4.488;2022-08-01T09:36:53;5.65;;;2.22;;
40745;SDS011;26454;51.164;4.488;2022-08-01T09:39:24;6.68;;;2.05;;
40745;SDS011;26454;51.164;4.488;2022-08-01T09:41:52;4.43;;;2.55;;
40745;SDS011;26454;51.164;4.488;2022-08-01T09:44:18;4.65;;;2.40;;
40745;SDS011;26454;51.164;4.488;2022-08-01T09:46:48;4.45;;;2.20;;
40745;SDS011;26454;51.164;4.488;2022-08-01T09:49:14;3.35;;;1.83;;
40745;SDS011;26454;51.164;4.488;2022-08-01T09:51:40;4.00;;;2.20;;
40745;SDS011;26454;51.164;4.488;2022-08-01T09:54:06;3.00;;;1.90;;
40745;SDS011;26454;51.164;4.488;2022-08-01T09:56:38;3.30;;;1.73;;
40745;SDS011;26454;51.164;4.488;2022-08-01T09:59:06;3.78;;;2.30;;
40745;SDS011;26454;51.164;4.488;2022-08-01T10:01:42;5.20;;;2.15;;
40745;SDS011;26454;51.164;4.488;2022-08-01T10:04:11;3.78;;;2.08;;
40745;SDS011;26454;51.164;4.488;2022-08-01T10:06:39;4.65;;;2.00;;
40745;SDS011;26454;51.164;4.488;2022-08-01T10:09:06;3.10;;;1.60;;
40745;SDS011;26454;51.164;4.488;2022-08-01T10:11:32;4.07;;;1.60;;
40745;SDS011;26454;51.164;4.488;2022-08-01T10:13:59;2.70;;;1.75;;
40745;SDS011;26454;51.164;4.488;2022-08-01T10:16:28;3.05;;;1.67;;
40745;SDS011;26454;51.164;4.488;2022-08-01T10:18:54;4.68;;;2.63;;
40745;SDS011;26454;51.164;4.488;2022-08-01T10:21:23;6.13;;;1.80;;
40745;SDS011;26454;51.164;4.488;2022-08-01T10:23:50;3.13;;;1.80;;
40745;SDS011;26454;51.164;4.488;2022-08-01T10:26:17;4.53;;;2.50;;
40745;SDS011;26454;51.164;4.488;2022-08-01T10:28:44;4.57;;;2.47;;
40745;SDS011;26454;51.164;4.488;2022-08-01T10:31:13;6.03;;;2.97;;
40745;SDS011;26454;51.164;4.488;2022-08-01T10:33:41;4.47;;;2.38;;
40745;SDS011;26454;51.164;4.488;2022-08-01T10:36:11;5.03;;;2.40;;
40745;SDS011;26454;51.164;4.488;2022-08-01T10:38:37;4.00;;;2.17;;
40745;SDS011;26454;51.164;4.488;2022-08-01T10:41:04;2.75;;;2.05;;
40745;SDS011;26454;51.164;4.488;2022-08-01T10:43:31;4.85;;;2.00;;
40745;SDS011;26454;51.164;4.488;2022-08-01T10:45:57;3.50;;;2.10;;
40745;SDS011;26454;51.164;4.488;2022-08-01T10:51:11;2.53;;;1.83;;
40745;SDS011;26454;51.164;4.488;2022-08-01T10:53:37;2.08;;;1.88;;
40745;SDS011;26454;51.164;4.488;2022-08-01T10:56:11;6.95;;;2.30;;
40745;SDS011;26454;51.164;4.488;2022-08-01T10:58:37;2.55;;;1.95;;
40745;SDS011;26454;51.164;4.488;2022-08-01T11:03:44;3.50;;;1.77;;
40745;SDS011;26454;51.164;4.488;2022-08-01T11:06:17;4.97;;;2.33;;
40745;SDS011;26454;51.164;4.488;2022-08-01T11:08:53;4.03;;;2.53;;
40745;SDS011;26454;51.164;4.488;2022-08-01T11:11:20;3.53;;;2.33;;
40745;SDS011;26454;51.164;4.488;2022-08-01T11:16:28;4.43;;;2.17;;
40745;SDS011;26454;51.164;4.488;2022-08-01T11:18:54;5.03;;;2.20;;
40745;SDS011;26454;51.164;4.488;2022-08-01T11:21:20;4.50;;;2.20;;
40745;SDS011;26454;51.164;4.488;2022-08-01T11:23:50;2.55;;;2.20;;
40745;SDS011;26454;51.164;4.488;2022-08-01T11:26:18;3.72;;;2.30;;
40745;SDS011;26454;51.164;4.488;2022-08-01T11:28:45;2.03;;;1.27;;
40745;SDS011;26454;51.164;4.488;2022-08-01T11:33:54;4.68;;;1.98;;
40745;SDS011;26454;51.164;4.488;2022-08-01T11:36:21;4.63;;;1.77;;
40745;SDS011;26454;51.164;4.488;2022-08-01T11:38:50;5.00;;;2.03;;
40745;SDS011;26454;51.164;4.488;2022-08-01T11:41:35;4.38;;;1.83;;
40745;SDS011;26454;51.164;4.488;2022-08-01T11:44:03;3.67;;;1.83;;
40745;SDS011;26454;51.164;4.488;2022-08-01T11:51:56;5.80;;;1.88;;
40745;SDS011;26454;51.164;4.488;2022-08-01T11:54:24;3.30;;;1.60;;
40745;SDS011;26454;51.164;4.488;2022-08-01T11:56:53;4.00;;;1.40;;
40745;SDS011;26454;51.164;4.488;2022-08-01T12:01:46;5.40;;;2.83;;
40745;SDS011;26454;51.164;4.488;2022-08-01T12:04:15;4.90;;;1.88;;
40745;SDS011;26454;51.164;4.488;2022-08-01T12:06:43;4.13;;;2.28;;
40745;SDS011;26454;51.164;4.488;2022-08-01T12:09:25;5.10;;;2.30;;
40745;SDS011;26454;51.164;4.488;2022-08-01T12:11:55;5.00;;;2.50;;
40745;SDS011;26454;51.164;4.488;2022-08-01T12:14:21;4.15;;;2.50;;
40745;SDS011;26454;51.164;4.488;2022-08-01T12:16:48;5.60;;;3.80;;
40745;SDS011;26454;51.164;4.488;2022-08-01T12:19:19;3.13;;;2.78;;
40745;SDS011;26454;51.164;4.488;2022-08-01T12:22:04;6.15;;;3.78;;
40745;SDS011;26454;51.164;4.488;2022-08-01T12:24:30;5.32;;;3.13;;
40745;SDS011;26454;51.164;4.488;2022-08-01T12:26:56;6.10;;;2.83;;
40745;SDS011;26454;51.164;4.488;2022-08-01T12:34:54;4.95;;;2.30;;
40745;SDS011;26454;51.164;4.488;2022-08-01T12:37:22;5.50;;;2.85;;
40745;SDS011;26454;51.164;4.488;2022-08-01T12:39:53;7.10;;;2.05;;
40745;SDS011;26454;51.164;4.488;2022-08-01T12:42:26;3.60;;;1.75;;
40745;SDS011;26454;51.164;4.488;2022-08-01T12:44:52;5.72;;;1.70;;
40745;SDS011;26454;51.164;4.488;2022-08-01T12:47:19;3.58;;;1.77;;
40745;SDS011;26454;51.164;4.488;2022-08-01T12:49:46;5.00;;;1.70;;
40745;SDS011;26454;51.164;4.488;2022-08-01T12:52:13;3.20;;;1.70;;
40745;SDS011;26454;51.164;4.488;2022-08-01T12:57:23;4.05;;;1.80;;
40745;SDS011;26454;51.164;4.488;2022-08-01T12:59:52;4.65;;;2.03;;
40745;SDS011;26454;51.164;4.488;2022-08-01T13:02:30;5.55;;;1.65;;
40745;SDS011;26454;51.164;4.488;2022-08-01T13:04:58;4.50;;;1.20;;
40745;SDS011;26454;51.164;4.488;2022-08-01T13:07:59;2.72;;;1.52;;
40745;SDS011;26454;51.164;4.488;2022-08-01T13:10:10;1.95;;;1.30;;
40745;SDS011;26454;51.164;4.488;2022-08-01T13:12:37;3.58;;;1.70;;
40745;SDS011;26454;51.164;4.488;2022-08-01T13:15:16;2.40;;;1.30;;
40745;SDS011;26454;51.164;4.488;2022-08-01T13:17:43;5.30;;;1.15;;
40745;SDS011;26454;51.164;4.488;2022-08-01T13:20:09;4.80;;;1.40;;
40745;SDS011;26454;51.164;4.488;2022-08-01T13:22:36;2.85;;;1.40;;
40745;SDS011;26454;51.164;4.488;2022-08-01T13:25:12;1.95;;;1.45;;
40745;SDS011;26454;51.164;4.488;2022-08-01T13:27:38;2.67;;;1.45;;
40745;SDS011;26454;51.164;4.488;2022-08-01T13:32:44;4.70;;;1.50;;
40745;SDS011;26454;51.164;4.488;2022-08-01T13:35:22;1.50;;;1.17;;
40745;SDS011;26454;51.164;4.488;2022-08-01T13:37:48;2.75;;;1.23;;
40745;SDS011;26454;51.164;4.488;2022-08-01T13:40:22;3.00;;;1.20;;
40745;SDS011;26454;51.164;4.488;2022-08-01T13:42:48;2.20;;;0.98;;
40745;SDS011;26454;51.164;4.488;2022-08-01T13:45:14;5.20;;;1.33;;
40745;SDS011;26454;51.164;4.488;2022-08-01T13:47:41;3.83;;;1.15;;
40745;SDS011;26454;51.164;4.488;2022-08-01T13:50:07;7.70;;;1.48;;
40745;SDS011;26454;51.164;4.488;2022-08-01T13:52:33;2.40;;;1.00;;
40745;SDS011;26454;51.164;4.488;2022-08-01T13:55:00;3.28;;;1.20;;
40745;SDS011;26454;51.164;4.488;2022-08-01T13:57:26;5.60;;;1.65;;
40745;SDS011;26454;51.164;4.488;2022-08-01T13:59:53;4.20;;;1.38;;
40745;SDS011;26454;51.164;4.488;2022-08-01T14:02:19;3.65;;;1.00;;
40745;SDS011;26454;51.164;4.488;2022-08-01T14:04:45;3.85;;;0.90;;
40745;SDS011;26454;51.164;4.488;2022-08-01T14:07:11;1.92;;;0.90;;
40745;SDS011;26454;51.164;4.488;2022-08-01T14:09:38;4.65;;;1.40;;
40745;SDS011;26454;51.164;4.488;2022-08-01T14:12:04;2.45;;;1.27;;
40745;SDS011;26454;51.164;4.488;2022-08-01T14:14:30;4.78;;;1.50;;
40745;SDS011;26454;51.164;4.488;2022-08-01T14:16:56;1.73;;;1.10;;
40745;SDS011;26454;51.164;4.488;2022-08-01T14:19:22;3.20;;;1.30;;
40745;SDS011;26454;51.164;4.488;2022-08-01T14:21:48;2.55;;;0.90;;
40745;SDS011;26454;51.164;4.488;2022-08-01T14:24:17;4.72;;;1.15;;
40745;SDS011;26454;51.164;4.488;2022-08-01T14:26:44;5.43;;;1.15;;
40745;SDS011;26454;51.164;4.488;2022-08-01T14:29:10;2.58;;;1.33;;
40745;SDS011;26454;51.164;4.488;2022-08-01T14:31:39;4.43;;;1.15;;
40745;SDS011;26454;51.164;4.488;2022-08-01T14:36:32;1.50;;;1.00;;
40745;SDS011;26454;51.164;4.488;2022-08-01T14:38:58;2.42;;;0.88;;
40745;SDS011;26454;51.164;4.488;2022-08-01T14:41:25;4.25;;;1.20;;
40745;SDS011;26454;51.164;4.488;2022-08-01T14:43:51;4.13;;;1.08;;
40745;SDS011;26454;51.164;4.488;2022-08-01T14:46:17;2.45;;;0.90;;
40745;SDS011;26454;51.164;4.488;2022-08-01T14:48:43;3.40;;;1.00;;
40745;SDS011;26454;51.164;4.488;2022-08-01T14:51:09;2.53;;;0.95;;
40745;SDS011;26454;51.164;4.488;2022-08-01T14:53:36;2.75;;;1.23;;
40745;SDS011;26454;51.164;4.488;2022-08-01T14:56:03;2.50;;;0.93;;
40745;SDS011;26454;51.164;4.488;2022-08-01T14:58:29;3.83;;;1.08;;
40745;SDS011;26454;51.164;4.488;2022-08-01T15:00:55;2.22;;;1.10;;
40745;SDS011;26454;51.164;4.488;2022-08-01T15:03:23;2.45;;;0.88;;
40745;SDS011;26454;51.164;4.488;2022-08-01T15:05:49;2.90;;;0.80;;
40745;SDS011;26454;51.164;4.488;2022-08-01T15:08:15;1.95;;;0.90;;
40745;SDS011;26454;51.164;4.488;2022-08-01T15:10:41;3.55;;;1.17;;
40745;SDS011;26454;51.164;4.488;2022-08-01T15:13:07;3.50;;;1.15;;
40745;SDS011;26454;51.164;4.488;2022-08-01T15:15:34;3.70;;;1.38;;
40745;SDS011;26454;51.164;4.488;2022-08-01T15:18:00;1.65;;;1.23;;
40745;SDS011;26454;51.164;4.488;2022-08-01T15:20:26;3.17;;;0.70;;
40745;SDS011;26454;51.164;4.488;2022-08-01T15:22:52;3.90;;;1.20;;
40745;SDS011;26454;51.164;4.488;2022-08-01T15:25:19;3.35;;;1.27;;
40745;SDS011;26454;51.164;4.488;2022-08-01T15:27:45;2.15;;;1.20;;
40745;SDS011;26454;51.164;4.488;2022-08-01T15:30:11;4.97;;;1.10;;